createdAt,value
2023-05-24T00:01:42.686Z,4.60
2023-05-24T00:06:45.900Z,8.38
2023-05-24T00:11:48.959Z,6.22
2023-05-24T00:16:52.576Z,6.47
2023-05-24T00:21:56.146Z,6.32
2023-05-24T00:26:59.110Z,7.65
2023-05-24T00:32:02.844Z,6.28
2023-05-24T00:37:06.187Z,5.85
2023-05-24T00:42:09.214Z,8.57
2023-05-24T00:47:12.364Z,5.65
2023-05-24T00:52:15.777Z,3.60
2023-05-24T00:57:19.494Z,7.75
2023-05-24T01:02:25.864Z,7.75
2023-05-24T01:07:39.371Z,6.18
2023-05-24T01:13:14.018Z,4.90
2023-05-24T01:18:51.095Z,5.60
2023-05-24T01:24:26.326Z,2.15
2023-05-24T01:29:30.615Z,3.72
2023-05-24T01:34:34.687Z,6.63
2023-05-24T01:39:37.854Z,3.03
2023-05-24T01:44:56.872Z,3.60
2023-05-24T01:50:10.898Z,4.68
2023-05-24T01:55:19.142Z,7.03
2023-05-24T02:00:22.517Z,2.85
2023-05-24T02:05:26.776Z,4.60
2023-05-24T02:10:30.163Z,5.72
2023-05-24T02:15:33.394Z,5.60
2023-05-24T02:20:39.949Z,5.72
2023-05-24T02:25:43.158Z,4.20
2023-05-24T02:30:46.410Z,3.25
2023-05-24T02:35:49.638Z,4.47
2023-05-24T02:40:52.697Z,4.22
2023-05-24T02:45:55.961Z,6.57
2023-05-24T02:50:59.101Z,4.63
2023-05-24T02:56:02.017Z,2.17
2023-05-24T03:06:11.266Z,6.50
2023-05-24T03:11:14.380Z,4.00
2023-05-24T03:16:17.702Z,5.63
2023-05-24T03:21:23.870Z,1.02
2023-05-24T03:26:27.436Z,2.22
2023-05-24T03:31:30.572Z,2.58
2023-05-24T03:36:34.485Z,3.53
2023-05-24T03:41:37.582Z,1.75
2023-05-24T03:46:40.838Z,3.92
2023-05-24T03:51:44.049Z,6.60
2023-05-24T03:56:47.085Z,5.80
2023-05-24T04:01:50.191Z,5.20
2023-05-24T04:06:54.354Z,6.57
2023-05-24T04:11:57.462Z,1.83
2023-05-24T04:17:00.563Z,4.45
2023-05-24T04:22:03.976Z,2.92
2023-05-24T04:27:07.719Z,2.20
2023-05-24T04:32:10.692Z,4.32
2023-05-24T04:37:17.594Z,2.25
2023-05-24T04:42:22.640Z,4.47
2023-05-24T04:47:25.913Z,4.57
2023-05-24T04:52:28.915Z,2.45
2023-05-24T04:57:32.030Z,4.13
2023-05-24T05:02:35.518Z,5.00
2023-05-24T05:07:38.870Z,1.77
2023-05-24T05:12:42.029Z,2.30
2023-05-24T05:17:45.023Z,2.78
2023-05-24T05:22:48.980Z,4.95
2023-05-24T05:27:52.029Z,1.67
2023-05-24T05:32:55.986Z,4.55
2023-05-24T05:37:59.042Z,3.33
2023-05-24T05:43:02.068Z,5.93
2023-05-24T05:48:05.031Z,5.70
2023-05-24T05:53:08.128Z,7.47
2023-05-24T05:58:12.397Z,4.68
2023-05-24T06:03:15.683Z,4.05
2023-05-24T06:08:19.372Z,2.58
2023-05-24T06:13:22.341Z,3.42
2023-05-24T06:18:27.142Z,4.28
2023-05-24T06:23:30.426Z,9.33
2023-05-24T06:28:33.381Z,1.05
2023-05-24T06:33:38.242Z,4.05
2023-05-24T06:38:41.696Z,2.15
2023-05-24T06:43:44.835Z,3.95
2023-05-24T06:48:47.995Z,5.60
2023-05-24T06:53:51.548Z,1.98
2023-05-24T06:58:54.533Z,6.10
2023-05-24T07:03:57.469Z,2.00
2023-05-24T07:09:02.407Z,5.05
2023-05-24T07:14:05.512Z,3.33
2023-05-24T07:19:08.582Z,2.80
2023-05-24T07:24:12.258Z,2.95
2023-05-24T07:29:28.691Z,2.85
2023-05-24T07:34:31.762Z,2.58
2023-05-24T07:39:34.738Z,5.18
2023-05-24T07:44:37.754Z,4.47
2023-05-24T07:49:40.830Z,4.03
2023-05-24T07:54:43.831Z,3.63
2023-05-24T07:59:46.831Z,1.58
2023-05-24T08:04:49.772Z,6.05
2023-05-24T08:09:53.201Z,2.35
2023-05-24T08:14:56.481Z,6.80
2023-05-24T08:19:59.543Z,3.45
2023-05-24T08:25:02.528Z,6.20
2023-05-24T08:30:08.885Z,3.08
2023-05-24T08:35:20.724Z,3.13
2023-05-24T08:40:25.589Z,3.03
2023-05-24T08:45:32.137Z,3.28
2023-05-24T08:50:35.794Z,3.17
2023-05-24T08:55:40.712Z,5.22
2023-05-24T09:00:43.782Z,6.20
2023-05-24T09:05:47.131Z,3.25
2023-05-24T09:10:55.517Z,3.28
2023-05-24T09:16:00.615Z,5.80
2023-05-24T09:21:03.872Z,2.57
2023-05-24T09:26:10.799Z,3.08
2023-05-24T09:31:14.377Z,5.10
2023-05-24T09:36:17.910Z,5.05
2023-05-24T09:41:21.260Z,5.20
2023-05-24T09:46:24.532Z,6.13
2023-05-24T09:51:27.750Z,6.72
2023-05-24T09:56:31.466Z,4.40
2023-05-24T10:01:36.415Z,2.47
2023-05-24T10:06:40.915Z,4.10
2023-05-24T10:11:45.360Z,5.35
2023-05-24T10:16:48.825Z,6.83
2023-05-24T10:21:54.238Z,3.58
2023-05-24T10:32:01.075Z,6.03
2023-05-24T10:37:04.255Z,2.35
2023-05-24T10:42:09.758Z,2.67
2023-05-24T10:47:14.567Z,4.30
2023-05-24T10:52:17.800Z,1.53
2023-05-24T10:57:24.969Z,4.00
2023-05-24T11:02:28.822Z,6.60
2023-05-24T11:07:33.823Z,7.38
2023-05-24T11:12:39.410Z,5.55
2023-05-24T11:18:10.199Z,8.95
2023-05-24T11:23:15.356Z,1.80
2023-05-24T11:28:18.920Z,5.72
2023-05-24T11:33:24.613Z,2.35
2023-05-24T11:38:27.949Z,5.20
2023-05-24T11:43:32.084Z,1.73
2023-05-24T11:48:35.424Z,3.83
2023-05-24T11:53:38.377Z,4.30
2023-05-24T11:58:50.664Z,2.90
2023-05-24T12:03:55.188Z,4.43
2023-05-24T12:08:58.668Z,4.20
2023-05-24T12:14:01.672Z,6.90
2023-05-24T12:19:11.580Z,3.08
2023-05-24T12:24:18.771Z,4.60
2023-05-24T12:29:21.790Z,3.17
2023-05-24T12:34:25.376Z,3.03
2023-05-24T12:39:36.298Z,4.75
2023-05-24T12:44:39.664Z,5.35
2023-05-24T12:49:43.877Z,4.70
2023-05-24T12:54:47.203Z,5.18
2023-05-24T12:59:50.648Z,8.00
2023-05-24T13:04:53.872Z,7.22
2023-05-24T13:09:57.143Z,5.40
2023-05-24T13:15:00.416Z,5.70
2023-05-24T13:20:07.285Z,8.68
2023-05-24T13:25:11.875Z,7.35
2023-05-24T13:30:15.040Z,6.82
2023-05-24T13:35:18.352Z,6.63
2023-05-24T13:40:21.653Z,3.90
2023-05-24T13:45:25.303Z,2.92
2023-05-24T13:50:28.279Z,7.35
2023-05-24T13:55:32.949Z,6.15
2023-05-24T14:00:36.545Z,5.27
2023-05-24T14:05:40.960Z,6.25
2023-05-24T14:10:44.393Z,6.90
2023-05-24T14:15:47.542Z,6.93
2023-05-24T14:20:50.556Z,4.78
2023-05-24T14:25:53.737Z,8.63
2023-05-24T14:30:56.601Z,5.53
2023-05-24T14:36:00.072Z,5.82
2023-05-24T14:41:06.587Z,7.20
2023-05-24T14:46:12.425Z,5.80
2023-05-24T14:51:15.607Z,8.90
2023-05-24T14:56:18.708Z,8.52
2023-05-24T15:01:22.034Z,7.20
2023-05-24T15:06:25.112Z,7.95
2023-05-24T15:11:28.158Z,9.10
2023-05-24T15:16:31.479Z,7.88
2023-05-24T15:21:34.584Z,8.45
2023-05-24T15:26:37.789Z,9.70
2023-05-24T15:31:41.241Z,13.63
2023-05-24T15:36:46.244Z,21.95
2023-05-24T15:41:49.323Z,13.77
2023-05-24T15:46:53.007Z,15.38
2023-05-24T15:52:04.413Z,15.40
2023-05-24T15:57:08.212Z,18.45
2023-05-24T16:02:11.890Z,21.58
2023-05-24T16:07:14.894Z,16.98
2023-05-24T16:12:18.508Z,15.95
2023-05-24T16:17:21.840Z,14.85
2023-05-24T16:22:25.101Z,9.55
2023-05-24T16:27:28.062Z,11.80
2023-05-24T16:32:31.088Z,9.40
2023-05-24T16:37:34.956Z,14.00
2023-05-24T16:42:37.898Z,11.88
2023-05-24T16:47:41.136Z,10.52
2023-05-24T16:52:45.106Z,14.73
2023-05-24T16:57:48.218Z,16.38
2023-05-24T17:02:51.281Z,14.27
2023-05-24T17:07:55.579Z,13.80
2023-05-24T17:12:58.408Z,14.15
2023-05-24T17:18:01.399Z,18.50
2023-05-24T17:23:04.443Z,13.52
2023-05-24T17:28:07.490Z,15.07
2023-05-24T17:33:10.521Z,8.93
2023-05-24T17:38:13.818Z,11.18
2023-05-24T17:43:16.950Z,10.65
2023-05-24T17:48:19.945Z,12.43
2023-05-24T17:53:31.226Z,12.88
2023-05-24T17:58:38.320Z,10.82
2023-05-24T18:03:42.049Z,9.50
2023-05-24T18:08:45.126Z,7.45
2023-05-24T18:13:48.031Z,8.07
2023-05-24T18:18:51.032Z,12.02
2023-05-24T18:23:54.029Z,12.27
2023-05-24T18:28:57.220Z,9.57
2023-05-24T18:34:01.727Z,9.32
2023-05-24T18:39:05.266Z,8.45
2023-05-24T18:44:10.950Z,7.57
2023-05-24T18:49:15.824Z,6.78
2023-05-24T18:54:18.744Z,7.22
2023-05-24T18:59:24.828Z,6.13
2023-05-24T19:04:28.539Z,5.13
2023-05-24T19:09:31.652Z,7.07
2023-05-24T19:14:34.704Z,6.28
2023-05-24T19:19:37.755Z,5.47
2023-05-24T19:24:40.577Z,6.07
2023-05-24T19:29:43.567Z,6.80
2023-05-24T19:34:46.704Z,11.00
2023-05-24T19:39:49.779Z,8.65
2023-05-24T19:44:52.931Z,11.38
2023-05-24T19:49:56.038Z,9.48
2023-05-24T19:54:59.015Z,5.40
2023-05-24T20:00:02.083Z,5.43
2023-05-24T20:05:14.511Z,8.98
2023-05-24T20:10:17.352Z,12.75
2023-05-24T20:15:20.288Z,10.20
2023-05-24T20:20:23.743Z,8.60
2023-05-24T20:25:27.478Z,7.72
2023-05-24T20:30:30.784Z,10.10
2023-05-24T20:35:33.714Z,11.85
2023-05-24T20:40:36.668Z,5.47
2023-05-24T20:45:39.597Z,4.28
2023-05-24T20:50:42.667Z,3.85
2023-05-24T20:55:45.944Z,3.42
2023-05-24T21:00:49.149Z,2.75
2023-05-24T21:05:52.105Z,3.47
2023-05-24T21:10:56.889Z,3.35
2023-05-24T21:16:02.609Z,3.83
2023-05-24T21:21:07.049Z,3.78
2023-05-24T21:26:09.945Z,7.78
2023-05-24T21:31:13.127Z,3.65
2023-05-24T21:36:16.262Z,2.45
2023-05-24T21:41:19.249Z,4.07
2023-05-24T21:46:22.110Z,4.75
2023-05-24T21:51:24.990Z,4.22
2023-05-24T21:56:28.094Z,8.52
2023-05-24T22:01:31.143Z,2.05
2023-05-24T22:06:34.080Z,9.23
2023-05-24T22:11:37.161Z,3.75
2023-05-24T22:16:41.712Z,10.52
2023-05-24T22:21:46.269Z,9.60
2023-05-24T22:26:50.331Z,10.53
2023-05-24T22:31:53.192Z,10.40
2023-05-24T22:36:57.901Z,10.88
2023-05-24T22:42:00.765Z,10.07
2023-05-24T22:47:03.820Z,10.20
2023-05-24T22:52:07.383Z,24.80
2023-05-24T22:57:10.271Z,15.13
2023-05-24T23:02:13.391Z,17.88
2023-05-24T23:07:16.523Z,18.88
2023-05-24T23:12:21.358Z,25.52
2023-05-24T23:17:24.354Z,33.40
2023-05-24T23:22:27.257Z,40.20
2023-05-24T23:27:30.826Z,45.45
2023-05-24T23:32:34.055Z,34.13
2023-05-24T23:37:36.883Z,45.30
2023-05-24T23:42:39.883Z,46.25
2023-05-24T23:47:42.777Z,35.30
2023-05-24T23:52:46.334Z,43.60
2023-05-24T23:57:49.840Z,48.85
